Time;durP1;ratioP1;P1;durP2;ratioP2;P2;SDS_P1;SDS_P2;PMS_P1;PMS_P2;Temp;Humidity;BMP_temperature;BMP_pressure;BME280_temperature;BME280_humidity;BME280_pressure;Samples;Min_cycle;Max_cycle;Signal;HPM_P1;HPM_P2
2021/12/04 00:01:24;;;;;;;;;;;;;;;1.72;64.52;99462.19;1744538;80;20288;-83
2021/12/04 00:03:50;;;;;;;;;;;;;;;1.59;64.67;99457.09;1782290;78;20102;-81
2021/12/04 00:06:23;;;;;;;;;;;;;;;1.74;64.32;99456.41;1778537;78;20154;-82
2021/12/04 00:08:46;;;;;;;;;;;;;;;1.64;64.45;99456.74;1776917;79;20175;-82
2021/12/04 00:11:13;;;;;;;;;;;;;;;1.68;64.51;99456.03;1759242;79;20966;-82
2021/12/04 00:13:41;;;;;;;;;;;;;;;1.69;64.35;99458.52;1777441;79;20951;-83
2021/12/04 00:16:07;;;;;;;;;;;;;;;1.72;64.33;99457.47;1780451;79;22531;-82
2021/12/04 00:18:36;;;;;;;;;;;;;;;1.70;64.23;99457.58;1774654;79;20085;-83
2021/12/04 00:21:06;;;;;;;;;;;;;;;1.61;64.25;99458.27;1776227;79;20172;-87
2021/12/04 00:23:33;;;;;;;;;;;;;;;1.30;64.92;99459.27;1784392;79;20157;-84
2021/12/04 00:25:59;;;;;;;;;;;;;;;1.41;65.12;99457.16;1780286;79;20192;-82
2021/12/04 00:28:27;;;;;;;;;;;;;;;1.41;64.95;99460.62;1784429;79;21939;-84
2021/12/04 00:30:53;;;;;;;;;;;;;;;1.58;64.59;99458.50;1776945;79;20442;-83
2021/12/04 00:33:22;;;;;;;;;;;;;;;1.40;64.71;99448.55;1770643;79;20455;-81
2021/12/04 00:35:58;;;;;;;;;;;;;;;1.43;64.78;99456.12;1771015;79;20135;-83
2021/12/04 00:51:33;;;;;;;;;;;;;;;1.33;65.04;99449.11;1752365;80;20115;-83
2021/12/04 00:53:59;;;;;;;;;;;;;;;1.19;65.27;99444.94;1755824;79;21689;-86
2021/12/04 00:56:30;;;;;;;;;;;;;;;1.42;64.99;99438.84;1750589;81;20159;-80
2021/12/04 00:58:59;;;;;;;;;;;;;;;1.48;64.78;99436.75;1756225;79;20152;-82
2021/12/04 01:01:24;;;;;;;;;;;;;;;1.32;64.96;99440.50;1750683;79;20171;-89
2021/12/04 01:03:50;;;;;;;;;;;;;;;1.20;65.02;99440.92;1755424;79;21276;-82
2021/12/04 01:06:16;;;;;;;;;;;;;;;1.01;65.57;99436.26;1751063;79;21167;-82
2021/12/04 01:08:42;;;;;;;;;;;;;;;0.98;65.46;99431.28;1752544;81;20172;-86
2021/12/04 01:11:07;;;;;;;;;;;;;;;1.03;65.62;99423.97;1751677;79;20238;-82
2021/12/04 01:13:33;;;;;;;;;;;;;;;1.08;65.59;99420.55;1757514;79;20137;-83
2021/12/04 01:15:59;;;;;;;;;;;;;;;1.08;65.58;99420.55;1751091;79;20194;-82
2021/12/04 01:18:26;;;;;;;;;;;;;;;1.14;65.55;99419.27;1750616;79;21105;-83
2021/12/04 01:20:53;;;;;;;;;;;;;;;1.16;65.19;99416.56;1728264;81;21025;-82
2021/12/04 01:23:19;;;;;;;;;;;;;;;1.18;65.16;99415.96;1758962;79;20307;-80
2021/12/04 01:25:45;;;;;;;;;;;;;;;1.07;65.31;99403.76;1756346;79;20206;-81
2021/12/04 01:28:10;;;;;;;;;;;;;;;1.12;65.25;99402.97;1746702;79;20221;-84
2021/12/04 01:30:37;;;;;;;;;;;;;;;1.19;65.05;99394.23;1751611;79;21146;-87
2021/12/04 01:33:02;;;;;;;;;;;;;;;0.92;65.42;99388.84;1741792;81;20205;-83
2021/12/04 01:35:30;;;;;;;;;;;;;;;1.02;65.31;99395.00;1732056;82;20723;-82
2021/12/04 01:37:55;;;;;;;;;;;;;;;1.06;65.29;99386.04;1734812;82;20182;-82
2021/12/04 01:40:21;;;;;;;;;;;;;;;1.06;65.05;99390.42;1734950;82;20486;-82
2021/12/04 01:42:48;;;;;;;;;;;;;;;1.07;65.27;99392.05;1729211;81;20887;-81
2021/12/04 01:45:13;;;;;;;;;;;;;;;1.11;65.20;99395.28;1734255;80;21017;-83
2021/12/04 01:47:39;;;;;;;;;;;;;;;1.05;65.19;99389.57;1718214;81;20185;-82
2021/12/04 01:50:09;;;;;;;;;;;;;;;0.95;65.39;99387.31;1725328;81;20183;-87
2021/12/04 01:52:34;;;;;;;;;;;;;;;0.98;65.62;99379.30;1731902;80;20163;-84
2021/12/04 01:55:02;;;;;;;;;;;;;;;1.00;65.55;99383.89;1741006;81;20812;-85
2021/12/04 01:57:28;;;;;;;;;;;;;;;0.97;65.38;99378.10;1727841;81;20852;-82
2021/12/04 01:59:53;;;;;;;;;;;;;;;1.06;65.54;99374.82;1731877;81;20199;-87
2021/12/04 02:02:19;;;;;;;;;;;;;;;0.91;65.83;99382.45;1710074;82;20449;-83
2021/12/04 02:04:44;;;;;;;;;;;;;;;0.96;65.90;99379.85;1711344;83;20136;-82
2021/12/04 02:07:12;;;;;;;;;;;;;;;0.78;66.14;99372.96;1709572;82;21108;-83
2021/12/04 02:09:38;;;;;;;;;;;;;;;0.64;66.43;99363.58;1738550;81;20434;-83
2021/12/04 02:12:06;;;;;;;;;;;;;;;0.59;66.79;99363.09;1743346;81;20258;-83
2021/12/04 02:14:35;;;;;;;;;;;;;;;0.66;66.73;99369.48;1736410;81;20204;-84
2021/12/04 02:17:01;;;;;;;;;;;;;;;0.56;66.99;99372.41;1741267;81;20188;-83
2021/12/04 02:19:27;;;;;;;;;;;;;;;0.66;66.97;99363.47;1718074;81;21763;-86
2021/12/04 02:21:54;;;;;;;;;;;;;;;0.76;66.82;99361.02;1742335;81;20299;-83
2021/12/04 02:24:21;;;;;;;;;;;;;;;0.82;66.80;99358.78;1728356;81;20133;-85
2021/12/04 02:26:49;;;;;;;;;;;;;;;0.79;66.84;99353.81;1715515;81;20222;-85
2021/12/04 02:29:18;;;;;;;;;;;;;;;0.77;67.02;99356.19;1738467;81;20177;-83
2021/12/04 02:31:49;;;;;;;;;;;;;;;0.87;66.91;99351.49;1746925;80;20182;-84
2021/12/04 02:34:23;;;;;;;;;;;;;;;0.79;67.12;99356.89;1772037;79;20171;-83
2021/12/04 02:36:48;;;;;;;;;;;;;;;0.87;67.03;99351.49;1747529;81;20482;-83
2021/12/04 02:39:24;;;;;;;;;;;;;;;0.83;67.13;99354.44;1754897;80;20145;-86
2021/12/04 02:41:50;;;;;;;;;;;;;;;0.77;67.52;99345.79;1782474;80;20211;-83
2021/12/04 02:44:16;;;;;;;;;;;;;;;0.53;68.20;99341.46;1752220;81;21112;-85
2021/12/04 02:46:42;;;;;;;;;;;;;;;0.55;68.21;99342.16;1729170;81;20352;-83
2021/12/04 02:49:10;;;;;;;;;;;;;;;0.55;68.56;99334.38;1753023;80;20274;-83
2021/12/04 02:51:36;;;;;;;;;;;;;;;0.76;68.03;99344.13;1786220;79;20173;-85
2021/12/04 02:54:04;;;;;;;;;;;;;;;0.66;68.34;99342.20;1785173;79;20221;-87
2021/12/04 02:56:32;;;;;;;;;;;;;;;0.73;68.17;99341.75;1782444;79;22699;-86
2021/12/04 02:59:02;;;;;;;;;;;;;;;0.76;68.20;99334.55;1764277;78;20607;-82
2021/12/04 03:01:28;;;;;;;;;;;;;;;0.64;68.46;99328.98;1772595;79;20123;-80
2021/12/04 03:04:06;;;;;;;;;;;;;;;0.74;68.38;99325.22;1750386;82;20641;-80
2021/12/04 03:06:35;;;;;;;;;;;;;;;0.76;68.37;99327.23;1748328;81;20200;-85
2021/12/04 03:09:04;;;;;;;;;;;;;;;0.58;68.93;99325.53;1745515;80;21338;-86
2021/12/04 03:11:30;;;;;;;;;;;;;;;0.53;69.17;99320.67;1759504;80;20187;-85
2021/12/04 03:13:57;;;;;;;;;;;;;;;0.51;69.44;99323.84;1782658;80;20209;-83
2021/12/04 03:16:24;;;;;;;;;;;;;;;0.60;69.23;99310.17;1784744;78;20166;-81
2021/12/04 03:18:52;;;;;;;;;;;;;;;0.57;69.39;99316.89;1784940;78;20184;-81
2021/12/04 03:21:18;;;;;;;;;;;;;;;0.60;69.35;99314.07;1785348;80;21217;-83
2021/12/04 03:23:58;;;;;;;;;;;;;;;0.58;69.33;99313.36;1756058;81;20540;-81
2021/12/04 03:26:22;;;;;;;;;;;;;;;0.45;70.00;99309.55;1755110;80;20147;-81
2021/12/04 03:28:51;;;;;;;;;;;;;;;0.19;70.41;99301.05;1787493;80;20550;-83
2021/12/04 03:31:40;;;;;;;;;;;;;;;0.30;70.60;99295.91;1783692;80;20515;-80
2021/12/04 03:42:06;;;;;;;;;;;;;;;0.39;70.91;99287.08;1761749;80;20133;-82
2021/12/04 03:44:35;;;;;;;;;;;;;;;0.29;71.04;99289.04;1766270;80;20183;-81
2021/12/04 03:47:01;;;;;;;;;;;;;;;0.37;70.73;99273.38;1760753;80;21584;-83
2021/12/04 03:49:29;;;;;;;;;;;;;;;0.30;71.02;99276.91;1766389;80;20173;-81
2021/12/04 03:51:56;;;;;;;;;;;;;;;0.41;70.86;99272.23;1768543;80;20158;-80
2021/12/04 03:54:25;;;;;;;;;;;;;;;0.44;70.80;99266.80;1760865;80;20133;-84
2021/12/04 03:57:02;;;;;;;;;;;;;;;0.40;71.04;99257.58;1738643;80;20203;-86
2021/12/04 03:59:24;;;;;;;;;;;;;;;0.41;70.82;99257.94;1765969;79;20173;-81
2021/12/04 04:01:53;;;;;;;;;;;;;;;0.31;71.07;99249.98;1753998;80;20489;-82
2021/12/04 04:04:21;;;;;;;;;;;;;;;0.33;71.23;99251.53;1762868;80;20218;-81
2021/12/04 04:06:48;;;;;;;;;;;;;;;0.37;71.16;99239.63;1769424;80;20204;-82
2021/12/04 04:09:17;;;;;;;;;;;;;;;0.42;70.98;99238.34;1766481;79;20159;-80
2021/12/04 04:11:43;;;;;;;;;;;;;;;0.52;70.83;99231.98;1759902;80;20187;-81
2021/12/04 04:14:09;;;;;;;;;;;;;;;0.58;70.67;99238.02;1765625;80;20753;-81
2021/12/04 04:16:39;;;;;;;;;;;;;;;0.62;70.39;99239.91;1749646;80;20253;-81
2021/12/04 04:19:07;;;;;;;;;;;;;;;0.52;70.66;99233.29;1764562;80;20184;-81
2021/12/04 04:21:39;;;;;;;;;;;;;;;0.53;70.71;99238.85;1758476;80;20135;-81
2021/12/04 04:24:06;;;;;;;;;;;;;;;0.60;70.50;99236.13;1765021;80;20173;-81
2021/12/04 04:26:32;;;;;;;;;;;;;;;0.66;70.25;99230.47;1747161;82;20153;-84
2021/12/04 04:28:58;;;;;;;;;;;;;;;0.65;70.33;99239.23;1765415;79;20120;-82
2021/12/04 04:31:29;;;;;;;;;;;;;;;0.67;70.41;99233.44;1764018;80;20165;-83
2021/12/04 04:34:01;;;;;;;;;;;;;;;0.64;70.29;99225.88;1753805;80;20633;-84
2021/12/04 05:01:27;;;;;;;;;;;;;;;0.63;70.80;99198.23;1747992;81;20156;-83
2021/12/04 05:12:20;;;;;;;;;;;;;;;0.63;70.81;99209.92;1750043;81;20188;-83
2021/12/04 05:14:43;;;;;;;;;;;;;;;0.64;70.77;99211.59;1748676;81;20130;-81
2021/12/04 05:17:13;;;;;;;;;;;;;;;0.60;70.96;99206.25;1747945;80;20188;-82
2021/12/04 05:19:52;;;;;;;;;;;;;;;0.65;70.97;99200.27;1722131;80;20130;-83
2021/12/04 05:22:12;;;;;;;;;;;;;;;0.77;70.65;99197.66;1745742;81;20122;-81
2021/12/04 05:24:41;;;;;;;;;;;;;;;0.64;70.95;99194.70;1746818;81;20192;-81
2021/12/04 05:27:07;;;;;;;;;;;;;;;0.69;70.89;99196.47;1746679;81;20242;-86
2021/12/04 05:29:33;;;;;;;;;;;;;;;0.70;70.62;99195.53;1748872;81;21137;-83
2021/12/04 05:32:04;;;;;;;;;;;;;;;0.67;70.74;99186.67;1773692;79;20181;-83
2021/12/04 05:34:33;;;;;;;;;;;;;;;0.66;70.90;99190.20;1754617;80;20126;-83
2021/12/04 05:37:04;;;;;;;;;;;;;;;0.68;70.82;99187.04;1757075;81;20145;-84
2021/12/04 05:39:29;;;;;;;;;;;;;;;0.82;70.72;99193.75;1759158;80;20146;-85
2021/12/04 05:41:55;;;;;;;;;;;;;;;0.92;70.32;99196.49;1742591;81;21089;-85
2021/12/04 05:44:24;;;;;;;;;;;;;;;0.90;70.21;99197.06;1742743;81;20629;-85
2021/12/04 05:46:59;;;;;;;;;;;;;;;0.68;70.64;99184.44;1734548;81;20188;-83
2021/12/04 05:55:10;;;;;;;;;;;;;;;0.87;70.40;99179.11;1755929;80;20164;-86
2021/12/04 05:57:23;;;;;;;;;;;;;;;0.85;70.22;99181.00;1753536;81;20613;-85
2021/12/04 05:59:51;;;;;;;;;;;;;;;0.76;70.35;99170.02;1732932;79;20318;-83
2021/12/04 06:02:19;;;;;;;;;;;;;;;0.82;70.39;99165.16;1755976;79;20207;-87
2021/12/04 06:04:46;;;;;;;;;;;;;;;0.86;70.21;99163.17;1754447;79;20477;-84
2021/12/04 06:07:14;;;;;;;;;;;;;;;0.97;70.20;99161.86;1758036;79;20157;-85
2021/12/04 06:09:42;;;;;;;;;;;;;;;1.04;70.08;99156.55;1759702;79;20130;-84
2021/12/04 06:12:10;;;;;;;;;;;;;;;1.06;69.80;99155.95;1758836;79;20201;-84
2021/12/04 06:14:35;;;;;;;;;;;;;;;1.08;69.67;99159.24;1754861;79;20149;-85
2021/12/04 06:17:04;;;;;;;;;;;;;;;1.05;69.68;99160.78;1758587;79;20218;-82
2021/12/04 06:24:59;;;;;;;;;;;;;;;1.03;69.85;99160.09;1758219;79;20138;-82
2021/12/04 06:27:25;;;;;;;;;;;;;;;1.05;69.72;99159.97;1761425;79;20208;-83
2021/12/04 06:29:52;;;;;;;;;;;;;;;1.17;69.65;99159.48;1756457;79;20441;-85
2021/12/04 06:32:19;;;;;;;;;;;;;;;1.21;69.55;99169.98;1757645;80;21177;-88
2021/12/04 06:34:46;;;;;;;;;;;;;;;1.10;69.57;99166.11;1725433;81;20264;-81
2021/12/04 06:37:15;;;;;;;;;;;;;;;1.21;69.76;99162.19;1754966;79;20216;-86
2021/12/04 06:39:49;;;;;;;;;;;;;;;1.22;69.32;99159.46;1753945;79;20178;-83
2021/12/04 06:42:18;;;;;;;;;;;;;;;1.27;69.44;99164.30;1750972;79;20489;-82
2021/12/04 06:44:46;;;;;;;;;;;;;;;1.23;69.42;99169.41;1752885;79;21169;-84
2021/12/04 06:47:13;;;;;;;;;;;;;;;1.18;69.26;99173.67;1756314;81;20128;-84
2021/12/04 06:49:42;;;;;;;;;;;;;;;1.01;69.67;99178.03;1754312;79;20151;-84
2021/12/04 06:52:15;;;;;;;;;;;;;;;0.99;69.93;99172.95;1757783;79;20278;-83
2021/12/04 06:54:40;;;;;;;;;;;;;;;1.06;69.95;99172.84;1749854;81;20520;-86
2021/12/04 06:57:10;;;;;;;;;;;;;;;1.07;69.81;99176.27;1751953;79;20517;-86
2021/12/04 06:59:38;;;;;;;;;;;;;;;1.16;69.73;99172.95;1744094;81;20216;-84
2021/12/04 07:02:03;;;;;;;;;;;;;;;1.22;69.82;99173.77;1740847;80;20157;-85
2021/12/04 07:04:35;;;;;;;;;;;;;;;1.33;69.54;99170.32;1749723;81;20135;-85
2021/12/04 07:07:02;;;;;;;;;;;;;;;1.21;69.19;99176.48;1764488;80;20189;-84
2021/12/04 07:09:28;;;;;;;;;;;;;;;1.23;69.40;99178.52;1760475;80;21170;-83
2021/12/04 07:11:56;;;;;;;;;;;;;;;1.21;69.57;99177.33;1755609;79;20171;-84
2021/12/04 07:14:24;;;;;;;;;;;;;;;1.29;69.50;99178.03;1753751;80;20151;-87
2021/12/04 07:16:49;;;;;;;;;;;;;;;1.33;69.19;99178.61;1753166;80;20206;-84
2021/12/04 07:19:16;;;;;;;;;;;;;;;1.31;69.16;99177.42;1758534;80;20501;-84
2021/12/04 07:21:44;;;;;;;;;;;;;;;1.37;69.09;99174.83;1761194;80;21320;-85
2021/12/04 07:24:15;;;;;;;;;;;;;;;1.41;68.86;99164.06;1758073;80;20124;-87
2021/12/04 07:26:42;;;;;;;;;;;;;;;1.56;68.82;99174.18;1769194;80;20116;-86
2021/12/04 07:29:08;;;;;;;;;;;;;;;1.47;68.90;99174.42;1727480;80;20326;-81
2021/12/04 07:31:37;;;;;;;;;;;;;;;1.30;69.22;99178.36;1754649;80;20745;-83
2021/12/04 07:34:07;;;;;;;;;;;;;;;1.48;69.15;99179.18;1757667;80;21182;-83
2021/12/04 07:36:35;;;;;;;;;;;;;;;1.55;68.94;99177.72;1756263;80;20112;-86
2021/12/04 07:39:03;;;;;;;;;;;;;;;1.63;68.75;99170.12;1725070;80;20193;-85
2021/12/04 07:41:30;;;;;;;;;;;;;;;1.70;68.59;99174.38;1756814;80;20134;-86
2021/12/04 07:43:59;;;;;;;;;;;;;;;1.67;68.43;99165.03;1758716;79;20120;-86
2021/12/04 07:46:27;;;;;;;;;;;;;;;1.74;68.35;99160.99;1760030;80;21408;-84
2021/12/04 07:48:53;;;;;;;;;;;;;;;1.73;68.34;99165.84;1760891;79;20316;-86
2021/12/04 07:51:19;;;;;;;;;;;;;;;1.84;68.28;99157.64;1757612;79;20146;-82
2021/12/04 07:53:47;;;;;;;;;;;;;;;1.88;68.18;99153.82;1755411;79;20170;-83
2021/12/04 07:56:16;;;;;;;;;;;;;;;1.93;68.10;99155.59;1757017;80;20181;-90
2021/12/04 07:58:43;;;;;;;;;;;;;;;1.86;67.97;99156.55;1756429;79;21053;-82
2021/12/04 08:01:12;;;;;;;;;;;;;;;1.91;68.03;99158.33;1744651;79;20224;-83
2021/12/04 08:03:38;;;;;;;;;;;;;;;1.86;67.99;99159.64;1745963;80;20149;-88
2021/12/04 08:06:04;;;;;;;;;;;;;;;1.83;67.98;99162.00;1752377;79;20198;-85
2021/12/04 08:08:34;;;;;;;;;;;;;;;1.83;68.09;99161.19;1760250;79;20211;-83
2021/12/04 08:11:00;;;;;;;;;;;;;;;1.93;67.92;99159.02;1762257;79;21149;-83
2021/12/04 08:13:28;;;;;;;;;;;;;;;1.96;67.96;99168.36;1758487;79;21219;-83
2021/12/04 08:15:54;;;;;;;;;;;;;;;2.03;67.75;99169.49;1764405;79;20612;-86
2021/12/04 08:18:19;;;;;;;;;;;;;;;2.04;67.33;99162.05;1763247;80;20122;-89
2021/12/04 08:20:47;;;;;;;;;;;;;;;2.09;67.55;99163.78;1755972;80;20151;-84
2021/12/04 08:23:17;;;;;;;;;;;;;;;1.98;67.42;99158.64;1757052;80;21172;-82
2021/12/04 08:25:44;;;;;;;;;;;;;;;2.10;67.43;99169.35;1765050;80;20143;-85
2021/12/04 08:28:12;;;;;;;;;;;;;;;2.04;67.46;99162.53;1758938;80;20150;-84
2021/12/04 08:30:40;;;;;;;;;;;;;;;1.93;67.67;99162.10;1761973;80;20197;-83
2021/12/04 08:33:09;;;;;;;;;;;;;;;2.17;67.17;99157.94;1762986;80;20570;-89
2021/12/04 08:35:42;;;;;;;;;;;;;;;2.26;66.99;99158.97;1764003;80;21092;-84
2021/12/04 08:38:10;;;;;;;;;;;;;;;2.19;66.66;99157.81;1753069;80;20126;-83
2021/12/04 08:40:36;;;;;;;;;;;;;;;2.10;66.72;99155.03;1731362;81;20139;-83
2021/12/04 08:43:03;;;;;;;;;;;;;;;2.21;66.66;99150.72;1750084;80;20216;-87
2021/12/04 08:45:30;;;;;;;;;;;;;;;2.37;66.93;99141.14;1748454;80;20146;-87
2021/12/04 08:47:56;;;;;;;;;;;;;;;2.37;66.89;99144.56;1754290;80;21071;-88
2021/12/04 08:50:25;;;;;;;;;;;;;;;2.53;66.75;99147.19;1753460;80;20201;-82
2021/12/04 08:52:52;;;;;;;;;;;;;;;2.44;66.41;99148.32;1751849;80;20139;-87
2021/12/04 08:55:19;;;;;;;;;;;;;;;2.61;66.32;99149.96;1754353;80;20180;-81
2021/12/04 08:57:44;;;;;;;;;;;;;;;2.76;65.61;99145.23;1753442;80;20211;-84
2021/12/04 09:00:18;;;;;;;;;;;;;;;2.74;65.01;99147.98;1758190;80;21096;-83
2021/12/04 09:02:45;;;;;;;;;;;;;;;2.80;65.22;99134.42;1754445;80;20244;-86
2021/12/04 09:05:14;;;;;;;;;;;;;;;2.83;65.27;99141.98;1759378;80;20207;-86
2021/12/04 09:07:41;;;;;;;;;;;;;;;2.84;64.80;99138.42;1721951;80;20288;-85
2021/12/04 09:10:08;;;;;;;;;;;;;;;2.94;64.98;99130.63;1737179;80;20257;-81
2021/12/04 09:12:39;;;;;;;;;;;;;;;3.00;64.61;99134.01;1739679;81;21063;-83
2021/12/04 09:15:13;;;;;;;;;;;;;;;3.02;64.43;99131.27;1735316;81;20149;-83
2021/12/04 09:17:42;;;;;;;;;;;;;;;3.05;64.25;99124.48;1713541;80;20111;-84
2021/12/04 09:20:12;;;;;;;;;;;;;;;3.04;64.18;99125.42;1714045;81;20316;-86
2021/12/04 09:22:38;;;;;;;;;;;;;;;3.10;63.90;99123.59;1718489;81;20176;-84
2021/12/04 09:25:11;;;;;;;;;;;;;;;3.12;63.94;99117.75;1734627;81;21308;-83
2021/12/04 09:30:39;;;;;;;;;;;;;;;2.99;64.12;99117.19;1721747;81;20153;-81
2021/12/04 09:33:08;;;;;;;;;;;;;;;3.05;64.17;99110.14;1736935;81;20150;-81
2021/12/04 10:00:27;;;;;;;;;;;;;;;3.40;62.96;99110.11;1740095;80;20192;-86
2021/12/04 10:05:53;;;;;;;;;;;;;;;3.23;63.01;99111.14;1733204;81;20203;-86
2021/12/04 10:19:04;;;;;;;;;;;;;;;3.36;64.46;99096.52;1721351;81;20239;-84
2021/12/04 10:24:05;;;;;;;;;;;;;;;3.11;64.02;99091.80;1739295;80;20166;-86
2021/12/04 10:34:44;;;;;;;;;;;;;;;3.38;63.11;99080.73;1733504;81;20662;-87
2021/12/04 10:37:17;;;;;;;;;;;;;;;3.38;62.14;99080.73;1741565;81;20426;-85
2021/12/04 10:39:48;;;;;;;;;;;;;;;3.61;62.50;99081.78;1772842;80;37968;-86
2021/12/04 10:42:24;;;;;;;;;;;;;;;3.78;61.64;99077.16;1743747;81;20155;-85
2021/12/04 10:44:51;;;;;;;;;;;;;;;3.76;61.13;99077.30;1769178;80;20499;-88
2021/12/04 10:47:24;;;;;;;;;;;;;;;3.79;61.00;99070.95;1767509;80;20276;-86
2021/12/04 10:55:34;;;;;;;;;;;;;;;3.84;60.41;99065.31;1760281;80;20515;-84
2021/12/04 10:58:43;;;;;;;;;;;;;;;3.51;60.64;99055.19;1763326;80;20159;-84
2021/12/04 11:23:43;;;;;;;;;;;;;;;3.74;60.09;99034.84;1748541;80;20134;-85
2021/12/04 11:26:14;;;;;;;;;;;;;;;3.74;60.21;99029.62;1734684;81;20185;-91
2021/12/04 11:37:00;;;;;;;;;;;;;;;3.81;60.08;99032.48;1741052;81;21130;-83
2021/12/04 11:42:16;;;;;;;;;;;;;;;3.92;59.51;99037.53;1746194;81;20146;-85
2021/12/04 11:44:52;;;;;;;;;;;;;;;3.83;59.67;99043.60;1752109;81;20157;-85
2021/12/04 11:47:18;;;;;;;;;;;;;;;3.77;59.60;99044.16;1745368;81;20189;-91
2021/12/04 11:49:45;;;;;;;;;;;;;;;3.84;59.83;99033.51;1745167;81;20149;-85
2021/12/04 11:52:16;;;;;;;;;;;;;;;3.92;59.62;99031.01;1750692;81;20133;-84
2021/12/04 11:54:52;;;;;;;;;;;;;;;4.02;59.51;99024.94;1749253;81;20129;-85
2021/12/04 11:57:23;;;;;;;;;;;;;;;4.13;59.70;99027.37;1740754;80;20614;-82
2021/12/04 11:59:53;;;;;;;;;;;;;;;4.26;59.52;99025.27;1745892;81;20459;-85
2021/12/04 12:02:23;;;;;;;;;;;;;;;4.35;59.19;99017.06;1744394;80;20236;-85
2021/12/04 12:04:54;;;;;;;;;;;;;;;4.27;58.47;99021.70;1747250;80;21186;-83
2021/12/04 12:07:31;;;;;;;;;;;;;;;4.13;58.72;99024.75;1742158;81;20625;-86
2021/12/04 12:10:08;;;;;;;;;;;;;;;4.27;58.66;99020.39;1743911;81;20491;-87
2021/12/04 12:12:36;;;;;;;;;;;;;;;4.36;58.63;99022.61;1749862;81;20219;-85
2021/12/04 12:15:05;;;;;;;;;;;;;;;4.50;58.47;99020.00;1744054;81;20498;-87
2021/12/04 12:17:36;;;;;;;;;;;;;;;4.44;58.03;99019.28;1740708;81;20228;-85
2021/12/04 12:20:03;;;;;;;;;;;;;;;4.36;57.79;99020.48;1754030;80;20199;-85
2021/12/04 12:22:49;;;;;;;;;;;;;;;4.28;58.54;99020.72;1745036;81;20539;-88
2021/12/04 12:25:25;;;;;;;;;;;;;;;4.20;58.44;99022.42;1738437;81;20579;-88
2021/12/04 12:33:29;;;;;;;;;;;;;;;3.86;58.75;99028.14;1743876;80;20157;-87
2021/12/04 12:36:04;;;;;;;;;;;;;;;3.94;58.94;99032.98;1738970;81;20571;-89
2021/12/04 12:38:53;;;;;;;;;;;;;;;4.05;58.99;99028.58;1736705;81;20126;-84
2021/12/04 12:41:31;;;;;;;;;;;;;;;3.91;58.68;99025.44;1746677;81;20180;-81
2021/12/04 12:44:09;;;;;;;;;;;;;;;3.83;58.92;99024.02;1738098;81;21991;-86
2021/12/04 12:46:50;;;;;;;;;;;;;;;3.85;59.35;99026.00;1740469;81;20157;-81
2021/12/04 12:49:25;;;;;;;;;;;;;;;3.84;59.39;99030.90;1725338;81;20243;-85
2021/12/04 12:52:18;;;;;;;;;;;;;;;3.97;59.52;99031.08;1746278;80;20181;-85
2021/12/04 12:54:47;;;;;;;;;;;;;;;3.87;59.64;99024.55;1742009;80;20193;-85
2021/12/04 12:57:21;;;;;;;;;;;;;;;3.95;59.70;99025.50;1736409;81;21559;-81
2021/12/04 13:13:43;;;;;;;;;;;;;;;3.78;62.22;99024.93;1746336;80;20186;-87
2021/12/04 13:16:18;;;;;;;;;;;;;;;3.82;62.79;99034.11;1744777;80;20149;-83
2021/12/04 13:18:49;;;;;;;;;;;;;;;3.76;63.80;99027.68;1742528;81;20220;-82
2021/12/04 13:21:16;;;;;;;;;;;;;;;3.75;64.86;99025.21;1745148;81;20256;-82
2021/12/04 13:23:46;;;;;;;;;;;;;;;3.75;66.61;99027.82;1712387;81;21026;-86
2021/12/04 13:26:15;;;;;;;;;;;;;;;3.57;67.71;99038.14;1744286;80;20491;-88
2021/12/04 13:28:43;;;;;;;;;;;;;;;3.64;68.46;99031.41;1726771;81;20140;-84
2021/12/04 13:31:11;;;;;;;;;;;;;;;3.63;69.15;99032.36;1742044;81;20229;-83
2021/12/04 13:33:42;;;;;;;;;;;;;;;3.65;70.41;99030.45;1745175;81;20133;-85
2021/12/04 13:36:17;;;;;;;;;;;;;;;3.67;70.63;99031.63;1738931;80;20569;-84
2021/12/04 13:38:42;;;;;;;;;;;;;;;3.69;71.12;99033.60;1750579;81;20189;-85
2021/12/04 13:41:09;;;;;;;;;;;;;;;3.75;70.98;99033.05;1744199;80;20514;-83
2021/12/04 13:43:35;;;;;;;;;;;;;;;3.44;72.25;99029.29;1737276;81;20222;-86
2021/12/04 13:46:04;;;;;;;;;;;;;;;3.68;71.40;99030.64;1738486;80;20480;-84
2021/12/04 13:48:31;;;;;;;;;;;;;;;3.67;72.08;99027.22;1736056;81;21907;-87
2021/12/04 13:51:00;;;;;;;;;;;;;;;3.66;71.85;99031.27;1738835;81;20133;-89
2021/12/04 13:53:30;;;;;;;;;;;;;;;3.69;72.40;99038.33;1737359;81;21085;-87
2021/12/04 13:56:02;;;;;;;;;;;;;;;3.49;73.14;99031.48;1736357;81;20198;-89
2021/12/04 13:58:28;;;;;;;;;;;;;;;3.54;73.74;99034.03;1737091;81;20222;-86
2021/12/04 14:00:54;;;;;;;;;;;;;;;3.64;73.70;99041.03;1738220;80;21004;-86
2021/12/04 14:03:25;;;;;;;;;;;;;;;3.75;73.36;99035.66;1737007;80;20246;-87
2021/12/04 14:05:52;;;;;;;;;;;;;;;3.65;73.43;99038.75;1709658;81;21201;-90
2021/12/04 14:08:20;;;;;;;;;;;;;;;3.59;74.54;99044.88;1734804;81;20182;-87
2021/12/04 14:10:48;;;;;;;;;;;;;;;3.51;75.30;99036.92;1735616;81;20183;-88
2021/12/04 14:13:19;;;;;;;;;;;;;;;3.27;76.78;99036.52;1712061;82;21875;-87
2021/12/04 14:15:52;;;;;;;;;;;;;;;3.17;77.30;99038.63;1727521;82;20178;-89
2021/12/04 14:18:18;;;;;;;;;;;;;;;3.29;77.10;99037.19;1735978;81;20516;-86
2021/12/04 14:20:49;;;;;;;;;;;;;;;3.40;77.17;99038.34;1730044;81;20519;-86
2021/12/04 14:23:17;;;;;;;;;;;;;;;3.48;76.94;99037.20;1737055;80;20163;-86
2021/12/04 14:25:47;;;;;;;;;;;;;;;3.58;76.64;99036.69;1736400;81;22084;-86
2021/12/04 14:28:20;;;;;;;;;;;;;;;3.59;77.20;99038.34;1734021;81;20181;-85
2021/12/04 14:30:53;;;;;;;;;;;;;;;3.52;77.98;99039.86;1732180;81;20176;-90
2021/12/04 14:33:22;;;;;;;;;;;;;;;3.56;77.88;99033.41;1736065;81;20226;-90
2021/12/04 14:35:51;;;;;;;;;;;;;;;3.51;78.26;99033.01;1731384;81;20568;-88
2021/12/04 14:38:20;;;;;;;;;;;;;;;3.55;78.51;99033.55;1724370;81;21058;-87
2021/12/04 14:40:51;;;;;;;;;;;;;;;3.59;78.67;99037.53;1731815;79;20219;-87
2021/12/04 14:43:19;;;;;;;;;;;;;;;3.64;78.71;99037.12;1740588;79;20133;-87
2021/12/04 14:45:49;;;;;;;;;;;;;;;3.49;80.07;99038.02;1759890;79;20181;-84
2021/12/04 14:48:23;;;;;;;;;;;;;;;3.49;79.55;99038.83;1694196;82;20125;-86
2021/12/04 14:50:51;;;;;;;;;;;;;;;3.58;79.46;99039.80;1790401;77;21269;-85
2021/12/04 14:53:18;;;;;;;;;;;;;;;3.51;80.34;99042.14;1800322;78;20174;-84
2021/12/04 14:55:48;;;;;;;;;;;;;;;3.39;80.96;99045.85;1799227;78;20496;-90
2021/12/04 14:58:22;;;;;;;;;;;;;;;3.45;80.99;99046.61;1799973;77;20205;-88
2021/12/04 15:01:00;;;;;;;;;;;;;;;3.44;81.24;99050.17;1800000;77;20141;-87
2021/12/04 15:03:38;;;;;;;;;;;;;;;3.51;81.36;99053.89;1781391;78;20706;-84
2021/12/04 15:06:07;;;;;;;;;;;;;;;3.59;80.85;99052.70;1796436;78;20171;-83
2021/12/04 15:08:36;;;;;;;;;;;;;;;3.66;80.43;99055.58;1797587;77;20167;-86
2021/12/04 15:11:05;;;;;;;;;;;;;;;3.69;80.52;99063.63;1706596;81;20156;-88
2021/12/04 15:13:37;;;;;;;;;;;;;;;3.76;80.17;99063.42;1752670;79;20125;-84
2021/12/04 15:16:08;;;;;;;;;;;;;;;3.77;80.37;99060.64;1754644;81;20303;-86
2021/12/04 15:18:37;;;;;;;;;;;;;;;3.75;80.74;99056.55;1755743;79;20156;-85
2021/12/04 15:21:06;;;;;;;;;;;;;;;3.79;80.98;99057.89;1753921;79;20208;-85
2021/12/04 15:23:34;;;;;;;;;;;;;;;3.83;80.73;99064.49;1782860;77;20176;-86
2021/12/04 15:26:02;;;;;;;;;;;;;;;3.81;80.87;99062.97;1797281;78;20147;-83
2021/12/04 15:28:34;;;;;;;;;;;;;;;3.82;81.07;99052.39;1799868;77;20971;-83
2021/12/04 15:31:03;;;;;;;;;;;;;;;3.74;81.74;99055.73;1807257;78;20191;-86
2021/12/04 15:33:37;;;;;;;;;;;;;;;3.70;81.97;99056.14;1814191;77;20190;-82
2021/12/04 15:36:04;;;;;;;;;;;;;;;3.64;82.47;99061.92;1794643;78;20737;-80
2021/12/04 15:38:44;;;;;;;;;;;;;;;3.57;83.40;99063.78;1807248;77;20189;-84
2021/12/04 15:54:27;;;;;;;;;;;;;;;3.49;84.26;99055.79;1805316;78;20170;-86
2021/12/04 15:56:54;;;;;;;;;;;;;;;3.50;85.01;99063.16;1794242;78;20122;-85
2021/12/04 15:59:22;;;;;;;;;;;;;;;3.55;84.19;99061.77;1806576;78;20623;-84
2021/12/04 16:01:50;;;;;;;;;;;;;;;3.65;83.66;99054.41;1802992;77;20511;-84
2021/12/04 16:04:29;;;;;;;;;;;;;;;3.63;83.77;99053.73;1807885;78;20470;-86
2021/12/04 16:06:56;;;;;;;;;;;;;;;3.65;83.59;99061.78;1771816;78;21169;-86
2021/12/04 16:09:32;;;;;;;;;;;;;;;3.67;83.28;99054.63;1807389;77;20607;-84
2021/12/04 16:12:01;;;;;;;;;;;;;;;3.71;83.09;99057.31;1800313;78;20145;-86
2021/12/04 16:14:31;;;;;;;;;;;;;;;3.71;82.90;99056.47;1800320;78;20317;-86
2021/12/04 16:17:03;;;;;;;;;;;;;;;3.66;83.05;99061.30;1797629;78;20130;-85